sensor_id;sensor_type;location;lat;lon;timestamp;pressure;altitude;pressure_sealevel;temperature;humidity
74544;BME280;63016;55.030;38.710;2024-03-23T00:54:45;99270.97;;;1.62;51.35
74544;BME280;63016;55.030;38.710;2024-03-23T00:57:10;99257.28;;;1.61;50.99
74544;BME280;63016;55.030;38.710;2024-03-23T00:59:36;99257.16;;;1.63;51.52
74544;BME280;63016;55.030;38.710;2024-03-23T01:02:01;99257.88;;;1.65;50.92
74544;BME280;63016;55.030;38.710;2024-03-23T01:04:27;99246.72;;;1.64;51.57
74544;BME280;63016;55.030;38.710;2024-03-23T01:06:52;99249.06;;;1.67;51.57
74544;BME280;63016;55.030;38.710;2024-03-23T01:09:17;99244.75;;;1.68;51.07
74544;BME280;63016;55.030;38.710;2024-03-23T01:11:43;99233.63;;;1.67;51.80
74544;BME280;63016;55.030;38.710;2024-03-23T01:14:08;99237.47;;;1.73;51.53
74544;BME280;63016;55.030;38.710;2024-03-23T01:16:34;99237.34;;;1.74;51.76
74544;BME280;63016;55.030;38.710;2024-03-23T01:18:59;99232.06;;;1.76;51.26
74544;BME280;63016;55.030;38.710;2024-03-23T01:21:25;99231.13;;;1.77;51.75
74544;BME280;63016;55.030;38.710;2024-03-23T01:23:50;99223.41;;;1.77;51.49
74544;BME280;63016;55.030;38.710;2024-03-23T01:26:16;99219.78;;;1.79;51.89
74544;BME280;63016;55.030;38.710;2024-03-23T01:28:41;99229.00;;;1.82;51.18
74544;BME280;63016;55.030;38.710;2024-03-23T01:31:07;99223.72;;;1.84;51.71
74544;BME280;63016;55.030;38.710;2024-03-23T01:33:32;99214.94;;;1.86;51.57
74544;BME280;63016;55.030;38.710;2024-03-23T01:35:58;99207.09;;;1.88;51.27
74544;BME280;63016;55.030;38.710;2024-03-23T01:38:23;99206.03;;;1.90;51.64
74544;BME280;63016;55.030;38.710;2024-03-23T01:40:49;99202.75;;;1.88;51.96
74544;BME280;63016;55.030;38.710;2024-03-23T01:43:14;99202.66;;;1.90;51.59
74544;BME280;63016;55.030;38.710;2024-03-23T01:45:40;99194.66;;;1.93;51.49
74544;BME280;63016;55.030;38.710;2024-03-23T01:48:06;99194.81;;;1.91;51.47
74544;BME280;63016;55.030;38.710;2024-03-23T01:50:32;99197.81;;;1.96;51.71
74544;BME280;63016;55.030;38.710;2024-03-23T01:53:01;99192.66;;;1.96;51.75
74544;BME280;63016;55.030;38.710;2024-03-23T01:55:28;99191.31;;;2.02;51.93
74544;BME280;63016;55.030;38.710;2024-03-23T01:57:56;99188.75;;;2.02;51.62
74544;BME280;63016;55.030;38.710;2024-03-23T02:00:22;99188.50;;;2.05;51.50
74544;BME280;63016;55.030;38.710;2024-03-23T02:02:48;99187.69;;;2.04;51.75
74544;BME280;63016;55.030;38.710;2024-03-23T02:05:14;99180.66;;;2.06;52.30
74544;BME280;63016;55.030;38.710;2024-03-23T02:07:41;99180.66;;;2.06;51.65
74544;BME280;63016;55.030;38.710;2024-03-23T02:10:07;99180.41;;;2.10;52.06
74544;BME280;63016;55.030;38.710;2024-03-23T02:12:33;99176.06;;;2.10;52.06
74544;BME280;63016;55.030;38.710;2024-03-23T02:14:59;99174.16;;;2.12;52.11
74544;BME280;63016;55.030;38.710;2024-03-23T02:17:24;99174.72;;;2.16;51.79
74544;BME280;63016;55.030;38.710;2024-03-23T02:19:50;99173.78;;;2.17;51.80
74544;BME280;63016;55.030;38.710;2024-03-23T02:22:16;99164.44;;;2.16;52.24
74544;BME280;63016;55.030;38.710;2024-03-23T02:24:42;99170.81;;;2.21;52.06
74544;BME280;63016;55.030;38.710;2024-03-23T02:27:07;99171.38;;;2.25;52.00
74544;BME280;63016;55.030;38.710;2024-03-23T02:29:33;99159.47;;;2.24;52.25
74544;BME280;63016;55.030;38.710;2024-03-23T02:31:58;99162.47;;;2.29;51.80
74544;BME280;63016;55.030;38.710;2024-03-23T02:34:24;99156.94;;;2.34;52.71
74544;BME280;63016;55.030;38.710;2024-03-23T02:36:50;99155.03;;;2.36;52.54
74544;BME280;63016;55.030;38.710;2024-03-23T02:39:15;99148.09;;;2.36;52.58
74544;BME280;63016;55.030;38.710;2024-03-23T02:41:41;99150.28;;;2.41;51.94
74544;BME280;63016;55.030;38.710;2024-03-23T02:44:06;99153.56;;;2.43;52.60
74544;BME280;63016;55.030;38.710;2024-03-23T02:46:32;99143.94;;;2.45;52.37
74544;BME280;63016;55.030;38.710;2024-03-23T02:48:57;99148.03;;;2.47;51.98
74544;BME280;63016;55.030;38.710;2024-03-23T02:51:23;99142.88;;;2.47;52.38
74544;BME280;63016;55.030;38.710;2024-03-23T02:53:48;99134.06;;;2.50;52.55
74544;BME280;63016;55.030;38.710;2024-03-23T02:56:14;99137.31;;;2.52;52.03
74544;BME280;63016;55.030;38.710;2024-03-23T02:58:42;99142.19;;;2.55;52.48
74544;BME280;63016;55.030;38.710;2024-03-23T03:01:08;99138.66;;;2.56;53.02
74544;BME280;63016;55.030;38.710;2024-03-23T03:03:33;99135.69;;;2.61;52.77
74544;BME280;63016;55.030;38.710;2024-03-23T03:05:59;99142.34;;;2.63;52.59
74544;BME280;63016;55.030;38.710;2024-03-23T03:08:24;99121.75;;;2.63;52.69
74544;BME280;63016;55.030;38.710;2024-03-23T03:10:50;99122.16;;;2.68;52.58
74544;BME280;63016;55.030;38.710;2024-03-23T03:13:16;99117.00;;;2.68;52.15
74544;BME280;63016;55.030;38.710;2024-03-23T03:15:43;99121.91;;;2.71;52.65
74544;BME280;63016;55.030;38.710;2024-03-23T03:18:09;99106.31;;;2.73;52.73
74544;BME280;63016;55.030;38.710;2024-03-23T03:20:40;99103.47;;;2.76;53.19
74544;BME280;63016;55.030;38.710;2024-03-23T03:23:06;99094.66;;;2.78;52.39
74544;BME280;63016;55.030;38.710;2024-03-23T03:25:32;99087.63;;;2.80;52.75
74544;BME280;63016;55.030;38.710;2024-03-23T03:27:57;99089.34;;;2.80;52.75
74544;BME280;63016;55.030;38.710;2024-03-23T03:30:23;99085.84;;;2.81;52.83
74544;BME280;63016;55.030;38.710;2024-03-23T03:32:49;99079.75;;;2.82;52.79
74544;BME280;63016;55.030;38.710;2024-03-23T03:35:15;99074.28;;;2.85;53.01
74544;BME280;63016;55.030;38.710;2024-03-23T03:37:40;99071.47;;;2.88;52.86
74544;BME280;63016;55.030;38.710;2024-03-23T03:40:06;99068.88;;;2.88;53.22
74544;BME280;63016;55.030;38.710;2024-03-23T03:42:34;99069.44;;;2.92;52.80
74544;BME280;63016;55.030;38.710;2024-03-23T03:45:00;99056.41;;;2.93;53.41
74544;BME280;63016;55.030;38.710;2024-03-23T03:47:25;99052.06;;;2.94;52.70
74544;BME280;63016;55.030;38.710;2024-03-23T03:49:51;99050.84;;;2.98;52.86
74544;BME280;63016;55.030;38.710;2024-03-23T03:52:16;99043.81;;;3.00;53.15
74544;BME280;63016;55.030;38.710;2024-03-23T03:54:42;99030.91;;;3.00;52.50
74544;BME280;63016;55.030;38.710;2024-03-23T03:57:07;99032.53;;;3.01;53.13
74544;BME280;63016;55.030;38.710;2024-03-23T03:59:32;99030.63;;;3.03;53.00
74544;BME280;63016;55.030;38.710;2024-03-23T04:01:58;99019.66;;;3.01;52.76
74544;BME280;63016;55.030;38.710;2024-03-23T04:04:24;99013.38;;;3.03;53.33
74544;BME280;63016;55.030;38.710;2024-03-23T04:06:49;99019.34;;;3.04;52.86
74544;BME280;63016;55.030;38.710;2024-03-23T04:09:15;99001.59;;;3.01;53.01
74544;BME280;63016;55.030;38.710;2024-03-23T04:11:40;99005.38;;;3.06;53.60
74544;BME280;63016;55.030;38.710;2024-03-23T04:14:06;98998.19;;;3.10;53.17
74544;BME280;63016;55.030;38.710;2024-03-23T04:16:35;98998.84;;;3.12;53.46
74544;BME280;63016;55.030;38.710;2024-03-23T04:19:01;98988.41;;;3.14;52.97
74544;BME280;63016;55.030;38.710;2024-03-23T04:21:26;98980.25;;;3.18;53.40
74544;BME280;63016;55.030;38.710;2024-03-23T04:23:52;98982.56;;;3.21;53.73
74544;BME280;63016;55.030;38.710;2024-03-23T04:26:17;98980.38;;;3.26;53.63
74544;BME280;63016;55.030;38.710;2024-03-23T04:28:43;98974.94;;;3.29;53.86
74544;BME280;63016;55.030;38.710;2024-03-23T04:31:09;98965.44;;;3.30;53.75
74544;BME280;63016;55.030;38.710;2024-03-23T04:33:34;98966.47;;;3.37;53.89
74544;BME280;63016;55.030;38.710;2024-03-23T04:36:00;98964.44;;;3.41;53.64
74544;BME280;63016;55.030;38.710;2024-03-23T04:38:25;98959.66;;;3.46;53.92
74544;BME280;63016;55.030;38.710;2024-03-23T04:40:58;98960.19;;;3.49;54.58
74544;BME280;63016;55.030;38.710;2024-03-23T04:43:24;98954.72;;;3.52;53.34
74544;BME280;63016;55.030;38.710;2024-03-23T04:45:50;98961.91;;;3.58;53.67
74544;BME280;63016;55.030;38.710;2024-03-23T04:48:15;98951.16;;;3.63;54.23
74544;BME280;63016;55.030;38.710;2024-03-23T04:50:41;98958.59;;;3.66;53.92
74544;BME280;63016;55.030;38.710;2024-03-23T04:53:07;98940.28;;;3.69;53.56
74544;BME280;63016;55.030;38.710;2024-03-23T04:55:33;98940.66;;;3.74;53.75
74544;BME280;63016;55.030;38.710;2024-03-23T04:57:58;98939.41;;;3.78;53.86
74544;BME280;63016;55.030;38.710;2024-03-23T05:00:24;98948.47;;;3.82;53.78
74544;BME280;63016;55.030;38.710;2024-03-23T05:02:50;98939.34;;;3.88;54.17
74544;BME280;63016;55.030;38.710;2024-03-23T05:05:15;98928.56;;;3.93;53.73
74544;BME280;63016;55.030;38.710;2024-03-23T05:07:41;98928.25;;;3.96;53.69
74544;BME280;63016;55.030;38.710;2024-03-23T05:10:08;98920.09;;;4.00;53.88
74544;BME280;63016;55.030;38.710;2024-03-23T05:12:37;98923.84;;;4.06;54.03
74544;BME280;63016;55.030;38.710;2024-03-23T05:15:04;98918.25;;;4.10;53.92
74544;BME280;63016;55.030;38.710;2024-03-23T05:17:30;98910.22;;;4.13;54.31
74544;BME280;63016;55.030;38.710;2024-03-23T05:19:56;98917.34;;;4.20;54.73
74544;BME280;63016;55.030;38.710;2024-03-23T05:22:22;98916.47;;;4.29;54.25
74544;BME280;63016;55.030;38.710;2024-03-23T05:24:48;98906.38;;;4.35;54.19
74544;BME280;63016;55.030;38.710;2024-03-23T05:27:13;98908.03;;;4.45;54.30
74544;BME280;63016;55.030;38.710;2024-03-23T05:29:39;98907.56;;;4.49;54.16
74544;BME280;63016;55.030;38.710;2024-03-23T05:32:04;98918.13;;;4.56;54.21
74544;BME280;63016;55.030;38.710;2024-03-23T05:34:30;98915.91;;;4.61;53.90
74544;BME280;63016;55.030;38.710;2024-03-23T05:36:55;98912.06;;;4.65;53.96
74544;BME280;63016;55.030;38.710;2024-03-23T05:39:21;98910.78;;;4.69;54.28
74544;BME280;63016;55.030;38.710;2024-03-23T05:41:48;98900.81;;;4.74;54.45
74544;BME280;63016;55.030;38.710;2024-03-23T05:44:13;98908.91;;;4.79;53.97
74544;BME280;63016;55.030;38.710;2024-03-23T05:46:40;98907.63;;;4.83;53.95
74544;BME280;63016;55.030;38.710;2024-03-23T05:49:06;98904.75;;;4.86;54.19
74544;BME280;63016;55.030;38.710;2024-03-23T05:51:31;98895.88;;;4.89;53.93
74544;BME280;63016;55.030;38.710;2024-03-23T05:53:57;98887.63;;;4.85;54.21
74544;BME280;63016;55.030;38.710;2024-03-23T05:56:22;98903.19;;;4.94;54.15
74544;BME280;63016;55.030;38.710;2024-03-23T05:58:48;98889.28;;;4.95;54.05
74544;BME280;63016;55.030;38.710;2024-03-23T06:01:14;98890.44;;;5.00;54.37
74544;BME280;63016;55.030;38.710;2024-03-23T06:03:39;98892.56;;;5.05;54.34
74544;BME280;63016;55.030;38.710;2024-03-23T06:06:05;98884.34;;;5.09;54.18
74544;BME280;63016;55.030;38.710;2024-03-23T06:08:35;98876.13;;;5.14;54.51
74544;BME280;63016;55.030;38.710;2024-03-23T06:11:01;98873.06;;;5.19;54.31
74544;BME280;63016;55.030;38.710;2024-03-23T06:13:26;98878.75;;;5.22;54.44
74544;BME280;63016;55.030;38.710;2024-03-23T06:15:55;98875.53;;;5.28;53.96
74544;BME280;63016;55.030;38.710;2024-03-23T06:18:20;98869.72;;;5.34;54.31
74544;BME280;63016;55.030;38.710;2024-03-23T06:20:46;98872.81;;;5.38;54.32
74544;BME280;63016;55.030;38.710;2024-03-23T06:23:11;98869.44;;;5.46;54.19
74544;BME280;63016;55.030;38.710;2024-03-23T06:25:38;98865.56;;;5.50;54.15
74544;BME280;63016;55.030;38.710;2024-03-23T06:28:03;98858.47;;;5.52;54.33
74544;BME280;63016;55.030;38.710;2024-03-23T06:30:30;98865.59;;;5.58;54.29
74544;BME280;63016;55.030;38.710;2024-03-23T06:32:57;98845.88;;;5.57;54.50
74544;BME280;63016;55.030;38.710;2024-03-23T06:35:22;98857.19;;;5.64;54.18
74544;BME280;63016;55.030;38.710;2024-03-23T06:37:48;98850.56;;;5.70;54.60
74544;BME280;63016;55.030;38.710;2024-03-23T06:40:14;98849.44;;;5.72;54.12
74544;BME280;63016;55.030;38.710;2024-03-23T06:42:39;98849.78;;;5.77;54.68
74544;BME280;63016;55.030;38.710;2024-03-23T06:45:05;98845.09;;;5.81;54.20
74544;BME280;63016;55.030;38.710;2024-03-23T06:47:31;98848.81;;;5.86;54.80
74544;BME280;63016;55.030;38.710;2024-03-23T06:49:57;98845.59;;;5.92;54.80
74544;BME280;63016;55.030;38.710;2024-03-23T06:52:23;98846.09;;;5.96;54.21
74544;BME280;63016;55.030;38.710;2024-03-23T06:54:48;98846.59;;;6.00;54.41
74544;BME280;63016;55.030;38.710;2024-03-23T06:57:14;98838.31;;;6.04;54.35
74544;BME280;63016;55.030;38.710;2024-03-23T06:59:39;98841.25;;;6.09;54.31
74544;BME280;63016;55.030;38.710;2024-03-23T07:02:08;98830.38;;;6.14;54.63
74544;BME280;63016;55.030;38.710;2024-03-23T07:04:34;98837.50;;;6.20;54.34
74544;BME280;63016;55.030;38.710;2024-03-23T07:07:00;98834.56;;;6.23;54.55
74544;BME280;63016;55.030;38.710;2024-03-23T07:09:28;98837.16;;;6.23;54.17
74544;BME280;63016;55.030;38.710;2024-03-23T07:11:54;98826.16;;;6.21;54.53
74544;BME280;63016;55.030;38.710;2024-03-23T07:14:21;98826.31;;;6.28;54.48
74544;BME280;63016;55.030;38.710;2024-03-23T07:16:47;98823.22;;;6.32;54.11
74544;BME280;63016;55.030;38.710;2024-03-23T07:19:14;98821.63;;;6.31;53.93
74544;BME280;63016;55.030;38.710;2024-03-23T07:21:42;98822.78;;;6.29;54.10
74544;BME280;63016;55.030;38.710;2024-03-23T07:24:07;98817.41;;;6.30;54.25
74544;BME280;63016;55.030;38.710;2024-03-23T07:26:33;98824.84;;;6.33;54.13
74544;BME280;63016;55.030;38.710;2024-03-23T07:28:58;98815.16;;;6.35;54.58
74544;BME280;63016;55.030;38.710;2024-03-23T07:31:24;98810.59;;;6.37;54.37
74544;BME280;63016;55.030;38.710;2024-03-23T07:33:50;98805.72;;;6.42;54.53
74544;BME280;63016;55.030;38.710;2024-03-23T07:36:16;98811.38;;;6.46;54.54
74544;BME280;63016;55.030;38.710;2024-03-23T07:38:42;98800.03;;;6.47;53.96
74544;BME280;63016;55.030;38.710;2024-03-23T07:41:11;98792.75;;;6.51;54.27
74544;BME280;63016;55.030;38.710;2024-03-23T07:43:37;98791.63;;;6.53;54.04
74544;BME280;63016;55.030;38.710;2024-03-23T07:46:04;98798.44;;;6.54;54.45
74544;BME280;63016;55.030;38.710;2024-03-23T07:48:30;98782.69;;;6.56;54.25
74544;BME280;63016;55.030;38.710;2024-03-23T07:53:35;98799.84;;;6.57;54.70
74544;BME280;63016;55.030;38.710;2024-03-23T07:56:11;98787.88;;;6.56;54.73
74544;BME280;63016;55.030;38.710;2024-03-23T07:58:37;98777.81;;;6.61;55.25
74544;BME280;63016;55.030;38.710;2024-03-23T08:01:13;98782.31;;;6.67;54.96
74544;BME280;63016;55.030;38.710;2024-03-23T08:03:41;98769.69;;;6.72;55.14
74544;BME280;63016;55.030;38.710;2024-03-23T08:06:25;98769.03;;;6.78;54.17
74544;BME280;63016;55.030;38.710;2024-03-23T08:08:59;98762.84;;;6.79;54.83
74544;BME280;63016;55.030;38.710;2024-03-23T08:11:26;98763.34;;;6.83;54.56
74544;BME280;63016;55.030;38.710;2024-03-23T08:13:52;98752.31;;;6.81;54.20
74544;BME280;63016;55.030;38.710;2024-03-23T08:16:18;98747.59;;;6.84;54.63
74544;BME280;63016;55.030;38.710;2024-03-23T08:18:44;98760.22;;;6.87;54.18
74544;BME280;63016;55.030;38.710;2024-03-23T08:21:09;98748.41;;;6.85;54.35
74544;BME280;63016;55.030;38.710;2024-03-23T08:23:35;98744.50;;;6.89;54.85
74544;BME280;63016;55.030;38.710;2024-03-23T08:26:05;98747.91;;;6.89;54.37
74544;BME280;63016;55.030;38.710;2024-03-23T08:28:31;98737.34;;;6.91;54.35
74544;BME280;63016;55.030;38.710;2024-03-23T08:30:56;98741.22;;;6.95;54.24
74544;BME280;63016;55.030;38.710;2024-03-23T08:33:25;98735.53;;;7.00;54.95
74544;BME280;63016;55.030;38.710;2024-03-23T08:36:02;98736.78;;;7.04;54.88
74544;BME280;63016;55.030;38.710;2024-03-23T08:38:28;98730.00;;;7.03;54.63
74544;BME280;63016;55.030;38.710;2024-03-23T08:41:01;98722.41;;;7.01;54.57
74544;BME280;63016;55.030;38.710;2024-03-23T08:43:28;98717.53;;;6.98;54.48
74544;BME280;63016;55.030;38.710;2024-03-23T08:46:03;98714.97;;;6.98;55.19
74544;BME280;63016;55.030;38.710;2024-03-23T08:48:28;98721.56;;;7.01;54.31
74544;BME280;63016;55.030;38.710;2024-03-23T08:51:04;98699.56;;;6.97;54.91
74544;BME280;63016;55.030;38.710;2024-03-23T08:53:30;98711.66;;;7.04;54.70
74544;BME280;63016;55.030;38.710;2024-03-23T08:55:57;98720.09;;;7.06;55.12
74544;BME280;63016;55.030;38.710;2024-03-23T08:58:24;98715.53;;;7.08;54.75
74544;BME280;63016;55.030;38.710;2024-03-23T09:00:50;98713.41;;;7.12;54.90
74544;BME280;63016;55.030;38.710;2024-03-23T09:03:16;98714.03;;;7.14;54.78
74544;BME280;63016;55.030;38.710;2024-03-23T09:05:42;98706.53;;;7.19;54.81
74544;BME280;63016;55.030;38.710;2024-03-23T09:08:07;98708.09;;;7.28;55.25
74544;BME280;63016;55.030;38.710;2024-03-23T09:10:39;98703.19;;;7.33;55.33
74544;BME280;63016;55.030;38.710;2024-03-23T09:13:05;98687.63;;;7.33;55.06
74544;BME280;63016;55.030;38.710;2024-03-23T09:15:33;98692.75;;;7.41;55.15
74544;BME280;63016;55.030;38.710;2024-03-23T09:17:59;98690.44;;;7.46;55.04
74544;BME280;63016;55.030;38.710;2024-03-23T09:20:25;98689.75;;;7.53;55.08
74544;BME280;63016;55.030;38.710;2024-03-23T09:22:51;98690.81;;;7.58;55.45
74544;BME280;63016;55.030;38.710;2024-03-23T09:25:16;98697.94;;;7.64;55.08
74544;BME280;63016;55.030;38.710;2024-03-23T09:27:42;98694.81;;;7.69;55.11
74544;BME280;63016;55.030;38.710;2024-03-23T09:30:07;98691.50;;;7.75;54.81
74544;BME280;63016;55.030;38.710;2024-03-23T09:32:35;98684.19;;;7.79;55.33
74544;BME280;63016;55.030;38.710;2024-03-23T09:35:00;98686.66;;;7.87;55.29
74544;BME280;63016;55.030;38.710;2024-03-23T09:37:26;98688.13;;;7.89;55.25
74544;BME280;63016;55.030;38.710;2024-03-23T09:39:52;98689.00;;;7.96;54.77
74544;BME280;63016;55.030;38.710;2024-03-23T09:42:17;98683.66;;;7.98;55.19
74544;BME280;63016;55.030;38.710;2024-03-23T09:44:43;98679.41;;;7.97;55.25
74544;BME280;63016;55.030;38.710;2024-03-23T09:47:09;98678.53;;;8.05;55.41
74544;BME280;63016;55.030;38.710;2024-03-23T09:49:35;98681.41;;;8.10;54.89
74544;BME280;63016;55.030;38.710;2024-03-23T09:52:03;98671.81;;;8.10;55.46
74544;BME280;63016;55.030;38.710;2024-03-23T09:54:29;98690.38;;;8.22;55.56
74544;BME280;63016;55.030;38.710;2024-03-23T09:56:55;98676.66;;;8.28;54.59
74544;BME280;63016;55.030;38.710;2024-03-23T09:59:20;98678.72;;;8.33;54.88
74544;BME280;63016;55.030;38.710;2024-03-23T10:01:46;98672.34;;;8.35;55.14
74544;BME280;63016;55.030;38.710;2024-03-23T10:04:38;98667.28;;;8.42;55.48
74544;BME280;63016;55.030;38.710;2024-03-23T10:07:14;98665.72;;;8.47;55.48
74544;BME280;63016;55.030;38.710;2024-03-23T10:09:40;98677.38;;;8.52;54.88
74544;BME280;63016;55.030;38.710;2024-03-23T10:12:14;98671.81;;;8.55;55.38
74544;BME280;63016;55.030;38.710;2024-03-23T10:14:40;98670.00;;;8.55;54.81
74544;BME280;63016;55.030;38.710;2024-03-23T10:19:43;98669.59;;;8.52;54.63
74544;BME280;63016;55.030;38.710;2024-03-23T10:22:10;98661.53;;;8.46;55.23
74544;BME280;63016;55.030;38.710;2024-03-23T10:24:35;98660.69;;;8.46;55.10
74544;BME280;63016;55.030;38.710;2024-03-23T10:27:01;98649.88;;;8.42;55.35
74544;BME280;63016;55.030;38.710;2024-03-23T10:29:26;98647.91;;;8.44;55.05
74544;BME280;63016;55.030;38.710;2024-03-23T10:31:53;98652.47;;;8.42;54.77
74544;BME280;63016;55.030;38.710;2024-03-23T10:34:25;98647.09;;;8.44;55.31
74544;BME280;63016;55.030;38.710;2024-03-23T10:36:53;98644.50;;;8.44;54.82
74544;BME280;63016;55.030;38.710;2024-03-23T10:39:20;98641.88;;;8.44;55.09
74544;BME280;63016;55.030;38.710;2024-03-23T10:41:49;98643.34;;;8.46;55.26
74544;BME280;63016;55.030;38.710;2024-03-23T10:44:19;98633.53;;;8.48;55.44
74544;BME280;63016;55.030;38.710;2024-03-23T10:46:45;98636.75;;;8.50;54.78
74544;BME280;63016;55.030;38.710;2024-03-23T10:49:10;98635.59;;;8.53;54.64
74544;BME280;63016;55.030;38.710;2024-03-23T10:51:37;98631.66;;;8.57;55.37
74544;BME280;63016;55.030;38.710;2024-03-23T10:54:06;98624.00;;;8.56;55.87
74544;BME280;63016;55.030;38.710;2024-03-23T10:56:35;98625.09;;;8.61;55.08
74544;BME280;63016;55.030;38.710;2024-03-23T10:59:02;98634.94;;;8.66;55.61
74544;BME280;63016;55.030;38.710;2024-03-23T11:01:31;98620.94;;;8.67;54.96
74544;BME280;63016;55.030;38.710;2024-03-23T11:03:56;98628.56;;;8.68;54.82
74544;BME280;63016;55.030;38.710;2024-03-23T11:06:36;98636.16;;;8.70;54.87
74544;BME280;63016;55.030;38.710;2024-03-23T11:09:02;98619.97;;;8.68;54.67
74544;BME280;63016;55.030;38.710;2024-03-23T11:11:27;98617.56;;;8.66;55.05
74544;BME280;63016;55.030;38.710;2024-03-23T11:13:56;98612.16;;;8.68;55.29
74544;BME280;63016;55.030;38.710;2024-03-23T11:16:23;98607.75;;;8.68;55.26
74544;BME280;63016;55.030;38.710;2024-03-23T11:18:50;98608.41;;;8.70;55.15
74544;BME280;63016;55.030;38.710;2024-03-23T11:21:53;98606.41;;;8.72;55.22
74544;BME280;63016;55.030;38.710;2024-03-23T11:24:20;98610.16;;;8.70;54.76
74544;BME280;63016;55.030;38.710;2024-03-23T11:26:46;98591.34;;;8.68;54.74
74544;BME280;63016;55.030;38.710;2024-03-23T11:29:13;98593.97;;;8.68;54.63
74544;BME280;63016;55.030;38.710;2024-03-23T11:31:48;98594.94;;;8.67;54.47
74544;BME280;63016;55.030;38.710;2024-03-23T11:34:20;98598.34;;;8.67;54.91
74544;BME280;63016;55.030;38.710;2024-03-23T11:36:46;98602.38;;;8.70;55.02
74544;BME280;63016;55.030;38.710;2024-03-23T11:42:00;98590.00;;;8.72;54.80
74544;BME280;63016;55.030;38.710;2024-03-23T11:44:26;98602.56;;;8.68;54.66
74544;BME280;63016;55.030;38.710;2024-03-23T11:46:52;98584.09;;;8.63;54.75
74544;BME280;63016;55.030;38.710;2024-03-23T11:49:28;98586.09;;;8.61;54.65
74544;BME280;63016;55.030;38.710;2024-03-23T11:51:55;98570.66;;;8.60;55.01
74544;BME280;63016;55.030;38.710;2024-03-23T11:54:22;98571.47;;;8.60;54.73
74544;BME280;63016;55.030;38.710;2024-03-23T11:57:04;98564.22;;;8.56;54.54
74544;BME280;63016;55.030;38.710;2024-03-23T11:59:34;98561.81;;;8.54;54.48
74544;BME280;63016;55.030;38.710;2024-03-23T12:02:11;98560.00;;;8.55;55.25
74544;BME280;63016;55.030;38.710;2024-03-23T12:04:40;98556.69;;;8.61;55.59
74544;BME280;63016;55.030;38.710;2024-03-23T12:07:19;98553.28;;;8.60;55.13
74544;BME280;63016;55.030;38.710;2024-03-23T12:10:04;98560.09;;;8.61;55.17
74544;BME280;63016;55.030;38.710;2024-03-23T12:12:31;98557.66;;;8.60;54.91
74544;BME280;63016;55.030;38.710;2024-03-23T12:15:07;98549.63;;;8.55;55.13
74544;BME280;63016;55.030;38.710;2024-03-23T12:17:34;98556.81;;;8.53;55.01
74544;BME280;63016;55.030;38.710;2024-03-23T12:20:01;98552.59;;;8.52;54.72
74544;BME280;63016;55.030;38.710;2024-03-23T12:22:26;98557.41;;;8.55;54.92
74544;BME280;63016;55.030;38.710;2024-03-23T12:24:52;98549.00;;;8.53;55.20
74544;BME280;63016;55.030;38.710;2024-03-23T12:27:18;98551.63;;;8.53;54.77
74544;BME280;63016;55.030;38.710;2024-03-23T12:29:43;98541.75;;;8.48;54.04
74544;BME280;63016;55.030;38.710;2024-03-23T12:32:11;98553.78;;;8.49;54.64
74544;BME280;63016;55.030;38.710;2024-03-23T12:34:37;98549.91;;;8.45;54.67
74544;BME280;63016;55.030;38.710;2024-03-23T12:37:03;98555.13;;;8.45;54.60
74544;BME280;63016;55.030;38.710;2024-03-23T12:39:29;98547.88;;;8.40;54.94
74544;BME280;63016;55.030;38.710;2024-03-23T12:41:54;98544.88;;;8.37;55.06
74544;BME280;63016;55.030;38.710;2024-03-23T12:44:20;98544.19;;;8.35;54.79
74544;BME280;63016;55.030;38.710;2024-03-23T12:46:46;98551.53;;;8.31;54.96
74544;BME280;63016;55.030;38.710;2024-03-23T12:49:12;98547.72;;;8.27;55.17
74544;BME280;63016;55.030;38.710;2024-03-23T12:51:37;98554.09;;;8.24;54.48
74544;BME280;63016;55.030;38.710;2024-03-23T12:54:03;98545.22;;;8.19;54.89
74544;BME280;63016;55.030;38.710;2024-03-23T12:56:29;98546.38;;;8.16;54.45
74544;BME280;63016;55.030;38.710;2024-03-23T12:58:55;98542.13;;;8.09;54.69
74544;BME280;63016;55.030;38.710;2024-03-23T13:01:23;98541.13;;;8.10;54.22
74544;BME280;63016;55.030;38.710;2024-03-23T13:03:50;98536.66;;;8.04;54.91
74544;BME280;63016;55.030;38.710;2024-03-23T13:06:16;98539.25;;;8.04;54.89
74544;BME280;63016;55.030;38.710;2024-03-23T13:08:47;98543.41;;;7.98;54.78
74544;BME280;63016;55.030;38.710;2024-03-23T13:11:15;98546.16;;;7.96;54.64
74544;BME280;63016;55.030;38.710;2024-03-23T13:13:41;98541.34;;;7.93;54.79
74544;BME280;63016;55.030;38.710;2024-03-23T13:16:07;98542.50;;;7.91;54.61
74544;BME280;63016;55.030;38.710;2024-03-23T13:18:33;98537.66;;;7.88;54.88
74544;BME280;63016;55.030;38.710;2024-03-23T13:20:59;98535.25;;;7.86;54.56
74544;BME280;63016;55.030;38.710;2024-03-23T13:23:25;98521.41;;;7.79;55.15
74544;BME280;63016;55.030;38.710;2024-03-23T13:25:55;98530.00;;;7.80;55.22
74544;BME280;63016;55.030;38.710;2024-03-23T13:28:23;98530.34;;;7.77;54.78
74544;BME280;63016;55.030;38.710;2024-03-23T13:30:53;98523.91;;;7.72;55.28
74544;BME280;63016;55.030;38.710;2024-03-23T13:33:19;98521.50;;;7.71;54.80
74544;BME280;63016;55.030;38.710;2024-03-23T13:35:52;98514.69;;;7.70;54.86
74544;BME280;63016;55.030;38.710;2024-03-23T13:38:19;98511.63;;;7.66;54.64
74544;BME280;63016;55.030;38.710;2024-03-23T13:40:54;98512.97;;;7.62;55.00
74544;BME280;63016;55.030;38.710;2024-03-23T13:43:21;98509.13;;;7.58;55.20
74544;BME280;63016;55.030;38.710;2024-03-23T13:45:48;98522.03;;;7.52;54.84
74544;BME280;63016;55.030;38.710;2024-03-23T13:48:15;98521.97;;;7.45;54.89
74544;BME280;63016;55.030;38.710;2024-03-23T13:50:41;98515.94;;;7.44;54.71
74544;BME280;63016;55.030;38.710;2024-03-23T13:53:06;98515.78;;;7.46;54.86
74544;BME280;63016;55.030;38.710;2024-03-23T13:55:33;98515.94;;;7.44;54.68
74544;BME280;63016;55.030;38.710;2024-03-23T13:57:59;98516.75;;;7.45;55.11
74544;BME280;63016;55.030;38.710;2024-03-23T14:00:24;98508.53;;;7.41;55.11